sensor_id;sensor_type;location;lat;lon;timestamp;pressure;altitude;pressure_sealevel;temperature;humidity
24752;BME280;27246;52.376;4.628;2022-11-04T01:05:09;99944.75;;;9.85;100.00
24752;BME280;27246;52.376;4.628;2022-11-04T01:10:10;99956.22;;;9.82;100.00
24752;BME280;27246;52.376;4.628;2022-11-04T01:15:15;99977.56;;;9.67;99.68
24752;BME280;27246;52.376;4.628;2022-11-04T01:20:17;99996.03;;;9.73;99.27
24752;BME280;27246;52.376;4.628;2022-11-04T01:25:24;100000.88;;;9.71;98.09
24752;BME280;27246;52.376;4.628;2022-11-04T01:30:26;99995.38;;;9.64;97.09
24752;BME280;27246;52.376;4.628;2022-11-04T01:35:28;99992.38;;;9.59;95.27
24752;BME280;27246;52.376;4.628;2022-11-04T01:40:35;100023.22;;;9.41;94.25
24752;BME280;27246;52.376;4.628;2022-11-04T01:45:36;100022.34;;;9.34;95.47
24752;BME280;27246;52.376;4.628;2022-11-04T01:50:39;100038.38;;;9.24;97.34
24752;BME280;27246;52.376;4.628;2022-11-04T01:55:46;100020.56;;;9.19;99.32
24752;BME280;27246;52.376;4.628;2022-11-04T02:00:50;100013.31;;;9.12;99.30
24752;BME280;27246;52.376;4.628;2022-11-04T02:05:52;100021.28;;;9.00;98.22
24752;BME280;27246;52.376;4.628;2022-11-04T02:11:00;100019.50;;;9.20;99.22
24752;BME280;27246;52.376;4.628;2022-11-04T02:16:06;100013.78;;;9.15;97.09
24752;BME280;27246;52.376;4.628;2022-11-04T02:37:58;100025.59;;;9.09;96.24
24752;BME280;27246;52.376;4.628;2022-11-04T02:43:10;100037.84;;;9.07;97.45
24752;BME280;27246;52.376;4.628;2022-11-04T02:48:36;100032.44;;;8.92;97.77
24752;BME280;27246;52.376;4.628;2022-11-04T02:54:13;100029.53;;;9.00;98.51
24752;BME280;27246;52.376;4.628;2022-11-04T02:59:39;100051.00;;;9.11;97.78
24752;BME280;27246;52.376;4.628;2022-11-04T03:04:45;100060.66;;;9.00;97.70
24752;BME280;27246;52.376;4.628;2022-11-04T03:09:50;100063.75;;;8.63;98.61
24752;BME280;27246;52.376;4.628;2022-11-04T03:14:59;100059.47;;;8.60;99.60
24752;BME280;27246;52.376;4.628;2022-11-04T03:20:06;100090.00;;;8.65;100.00
24752;BME280;27246;52.376;4.628;2022-11-04T03:25:10;100106.03;;;8.40;100.00
24752;BME280;27246;52.376;4.628;2022-11-04T03:30:19;100116.84;;;8.41;100.00
24752;BME280;27246;52.376;4.628;2022-11-04T03:35:22;100112.84;;;8.44;100.00
24752;BME280;27246;52.376;4.628;2022-11-04T03:40:25;100110.31;;;8.28;100.00
24752;BME280;27246;52.376;4.628;2022-11-04T03:45:27;100113.94;;;8.28;100.00
24752;BME280;27246;52.376;4.628;2022-11-04T03:50:37;100114.41;;;8.17;100.00
24752;BME280;27246;52.376;4.628;2022-11-04T03:56:09;100115.66;;;8.14;100.00
24752;BME280;27246;52.376;4.628;2022-11-04T04:01:46;100144.00;;;8.15;100.00
24752;BME280;27246;52.376;4.628;2022-11-04T04:06:53;100141.72;;;8.04;100.00
24752;BME280;27246;52.376;4.628;2022-11-04T04:12:02;100144.53;;;8.25;100.00
24752;BME280;27246;52.376;4.628;2022-11-04T04:22:44;100168.22;;;8.41;100.00
24752;BME280;27246;52.376;4.628;2022-11-04T04:27:48;100160.28;;;8.31;100.00
24752;BME280;27246;52.376;4.628;2022-11-04T04:32:57;100153.63;;;8.26;100.00
24752;BME280;27246;52.376;4.628;2022-11-04T04:38:03;100157.25;;;8.26;100.00
24752;BME280;27246;52.376;4.628;2022-11-04T04:43:25;100155.94;;;8.22;100.00
24752;BME280;27246;52.376;4.628;2022-11-04T04:48:45;100169.25;;;8.25;100.00
24752;BME280;27246;52.376;4.628;2022-11-04T04:53:47;100162.16;;;8.16;100.00
24752;BME280;27246;52.376;4.628;2022-11-04T04:58:49;100162.28;;;8.23;100.00
24752;BME280;27246;52.376;4.628;2022-11-04T05:03:50;100173.53;;;8.43;100.00
24752;BME280;27246;52.376;4.628;2022-11-04T05:08:52;100171.28;;;8.31;100.00
24752;BME280;27246;52.376;4.628;2022-11-04T05:13:54;100178.25;;;8.49;100.00
24752;BME280;27246;52.376;4.628;2022-11-04T05:18:55;100184.97;;;8.46;100.00
24752;BME280;27246;52.376;4.628;2022-11-04T05:23:57;100194.22;;;8.38;100.00
24752;BME280;27246;52.376;4.628;2022-11-04T05:28:59;100192.88;;;8.34;100.00
24752;BME280;27246;52.376;4.628;2022-11-04T05:34:03;100209.75;;;8.31;100.00
24752;BME280;27246;52.376;4.628;2022-11-04T05:39:06;100210.69;;;8.38;100.00
24752;BME280;27246;52.376;4.628;2022-11-04T05:44:09;100203.97;;;8.41;100.00
24752;BME280;27246;52.376;4.628;2022-11-04T05:49:11;100201.50;;;8.31;100.00
24752;BME280;27246;52.376;4.628;2022-11-04T05:54:13;100208.41;;;8.27;100.00
24752;BME280;27246;52.376;4.628;2022-11-04T05:59:14;100221.00;;;8.21;100.00
24752;BME280;27246;52.376;4.628;2022-11-04T06:04:18;100225.00;;;8.34;100.00
24752;BME280;27246;52.376;4.628;2022-11-04T06:09:19;100219.31;;;8.35;100.00
24752;BME280;27246;52.376;4.628;2022-11-04T06:14:21;100227.97;;;8.32;100.00
24752;BME280;27246;52.376;4.628;2022-11-04T06:19:24;100228.22;;;8.37;100.00
24752;BME280;27246;52.376;4.628;2022-11-04T06:24:26;100232.84;;;8.52;100.00
24752;BME280;27246;52.376;4.628;2022-11-04T06:29:27;100242.41;;;8.56;100.00
24752;BME280;27246;52.376;4.628;2022-11-04T06:34:29;100246.41;;;8.53;100.00
24752;BME280;27246;52.376;4.628;2022-11-04T06:39:31;100260.31;;;8.52;100.00
24752;BME280;27246;52.376;4.628;2022-11-04T06:44:33;100266.25;;;8.70;100.00
24752;BME280;27246;52.376;4.628;2022-11-04T06:49:35;100276.28;;;8.78;100.00
24752;BME280;27246;52.376;4.628;2022-11-04T06:54:36;100288.81;;;8.80;100.00
24752;BME280;27246;52.376;4.628;2022-11-04T06:59:38;100294.03;;;8.75;100.00
24752;BME280;27246;52.376;4.628;2022-11-04T07:04:40;100300.41;;;8.76;100.00
24752;BME280;27246;52.376;4.628;2022-11-04T07:09:41;100304.50;;;8.65;100.00
24752;BME280;27246;52.376;4.628;2022-11-04T07:14:43;100309.22;;;8.71;100.00
24752;BME280;27246;52.376;4.628;2022-11-04T07:19:45;100322.59;;;8.74;100.00
24752;BME280;27246;52.376;4.628;2022-11-04T07:24:47;100330.00;;;8.74;100.00
24752;BME280;27246;52.376;4.628;2022-11-04T07:29:49;100341.34;;;8.86;100.00
24752;BME280;27246;52.376;4.628;2022-11-04T07:34:51;100347.91;;;8.85;100.00
24752;BME280;27246;52.376;4.628;2022-11-04T07:39:53;100357.28;;;8.90;100.00
24752;BME280;27246;52.376;4.628;2022-11-04T07:44:54;100348.47;;;8.95;100.00
24752;BME280;27246;52.376;4.628;2022-11-04T07:49:56;100358.16;;;8.91;100.00
24752;BME280;27246;52.376;4.628;2022-11-04T07:54:58;100363.00;;;8.89;100.00
24752;BME280;27246;52.376;4.628;2022-11-04T08:22:25;100406.97;;;9.04;100.00
24752;BME280;27246;52.376;4.628;2022-11-04T08:27:33;100409.19;;;8.93;100.00
24752;BME280;27246;52.376;4.628;2022-11-04T08:32:35;100406.78;;;8.90;100.00
24752;BME280;27246;52.376;4.628;2022-11-04T08:37:36;100412.97;;;8.92;100.00
24752;BME280;27246;52.376;4.628;2022-11-04T08:42:38;100414.19;;;9.05;100.00
24752;BME280;27246;52.376;4.628;2022-11-04T08:47:40;100418.84;;;9.04;100.00
24752;BME280;27246;52.376;4.628;2022-11-04T08:52:42;100418.00;;;9.04;100.00
24752;BME280;27246;52.376;4.628;2022-11-04T08:57:44;100429.44;;;9.22;100.00
24752;BME280;27246;52.376;4.628;2022-11-04T09:02:46;100423.56;;;9.25;100.00
24752;BME280;27246;52.376;4.628;2022-11-04T09:07:48;100425.72;;;9.30;100.00
24752;BME280;27246;52.376;4.628;2022-11-04T09:12:49;100427.34;;;9.24;100.00
24752;BME280;27246;52.376;4.628;2022-11-04T09:17:51;100441.28;;;9.23;100.00
24752;BME280;27246;52.376;4.628;2022-11-04T09:22:54;100458.56;;;9.31;100.00
24752;BME280;27246;52.376;4.628;2022-11-04T09:27:56;100458.72;;;9.45;100.00
24752;BME280;27246;52.376;4.628;2022-11-04T09:32:57;100459.34;;;9.61;100.00
24752;BME280;27246;52.376;4.628;2022-11-04T09:37:59;100470.25;;;9.70;100.00
24752;BME280;27246;52.376;4.628;2022-11-04T09:43:36;100473.41;;;9.88;100.00
24752;BME280;27246;52.376;4.628;2022-11-04T09:48:48;100488.53;;;9.92;99.38
24752;BME280;27246;52.376;4.628;2022-11-04T09:54:07;100493.63;;;9.95;98.60
24752;BME280;27246;52.376;4.628;2022-11-04T09:59:15;100514.13;;;10.08;98.92
24752;BME280;27246;52.376;4.628;2022-11-04T10:09:51;100546.88;;;10.17;97.38
24752;BME280;27246;52.376;4.628;2022-11-04T10:15:17;100542.06;;;9.68;94.19
24752;BME280;27246;52.376;4.628;2022-11-04T10:20:48;100553.13;;;9.53;95.04
24752;BME280;27246;52.376;4.628;2022-11-04T10:26:12;100558.41;;;9.55;96.11
24752;BME280;27246;52.376;4.628;2022-11-04T10:31:17;100577.31;;;9.58;95.86
24752;BME280;27246;52.376;4.628;2022-11-04T10:36:20;100573.41;;;9.67;97.44
24752;BME280;27246;52.376;4.628;2022-11-04T10:41:42;100583.28;;;9.76;97.11
24752;BME280;27246;52.376;4.628;2022-11-04T10:52:15;100587.53;;;9.79;97.36
24752;BME280;27246;52.376;4.628;2022-11-04T10:57:24;100588.97;;;9.75;96.93
24752;BME280;27246;52.376;4.628;2022-11-04T11:07:36;100618.44;;;9.89;96.68
24752;BME280;27246;52.376;4.628;2022-11-04T11:12:38;100618.53;;;9.96;96.96
24752;BME280;27246;52.376;4.628;2022-11-04T11:17:59;100623.94;;;10.04;97.10
24752;BME280;27246;52.376;4.628;2022-11-04T11:23:03;100650.06;;;10.08;96.59
24752;BME280;27246;52.376;4.628;2022-11-04T11:28:29;100675.44;;;10.04;97.07
24752;BME280;27246;52.376;4.628;2022-11-04T11:33:32;100678.22;;;9.89;95.63
24752;BME280;27246;52.376;4.628;2022-11-04T11:38:35;100691.03;;;9.81;92.96
24752;BME280;27246;52.376;4.628;2022-11-04T11:43:40;100682.81;;;9.73;91.62
24752;BME280;27246;52.376;4.628;2022-11-04T11:48:49;100682.81;;;9.73;93.39
24752;BME280;27246;52.376;4.628;2022-11-04T11:59:34;100671.53;;;9.53;94.55
24752;BME280;27246;52.376;4.628;2022-11-04T12:04:57;100690.44;;;9.41;95.65
24752;BME280;27246;52.376;4.628;2022-11-04T12:10:39;100700.41;;;9.57;95.95
24752;BME280;27246;52.376;4.628;2022-11-04T12:16:11;100701.16;;;9.51;95.47
24752;BME280;27246;52.376;4.628;2022-11-04T12:21:24;100699.09;;;9.53;96.50
24752;BME280;27246;52.376;4.628;2022-11-04T12:26:46;100701.16;;;9.51;96.41
24752;BME280;27246;52.376;4.628;2022-11-04T12:37:18;100703.16;;;9.57;96.23
24752;BME280;27246;52.376;4.628;2022-11-04T12:42:30;100709.78;;;9.48;97.72
24752;BME280;27246;52.376;4.628;2022-11-04T12:47:38;100719.22;;;9.69;100.00
24752;BME280;27246;52.376;4.628;2022-11-04T12:53:05;100712.19;;;9.81;100.00
24752;BME280;27246;52.376;4.628;2022-11-04T13:04:08;100740.34;;;9.91;100.00
24752;BME280;27246;52.376;4.628;2022-11-04T13:09:15;100739.88;;;9.88;99.91
24752;BME280;27246;52.376;4.628;2022-11-04T13:15:22;100755.00;;;9.92;98.19
24752;BME280;27246;52.376;4.628;2022-11-04T13:20:04;100767.25;;;9.89;97.80
24752;BME280;27246;52.376;4.628;2022-11-04T13:25:32;100780.75;;;9.61;96.97
24752;BME280;27246;52.376;4.628;2022-11-04T13:47:34;100795.47;;;9.91;98.86
24752;BME280;27246;52.376;4.628;2022-11-04T13:52:46;100803.72;;;9.91;99.19
24752;BME280;27246;52.376;4.628;2022-11-04T13:57:59;100801.19;;;9.67;98.31
24752;BME280;27246;52.376;4.628;2022-11-04T14:03:38;100814.31;;;9.65;99.49
24752;BME280;27246;52.376;4.628;2022-11-04T14:09:23;100816.69;;;9.68;98.98
24752;BME280;27246;52.376;4.628;2022-11-04T14:14:22;100818.28;;;9.62;100.00
24752;BME280;27246;52.376;4.628;2022-11-04T14:25:02;100833.44;;;9.81;100.00
24752;BME280;27246;52.376;4.628;2022-11-04T14:30:06;100823.91;;;9.92;100.00
24752;BME280;27246;52.376;4.628;2022-11-04T14:35:16;100832.53;;;10.04;100.00
24752;BME280;27246;52.376;4.628;2022-11-04T14:40:28;100853.38;;;10.06;98.52
24752;BME280;27246;52.376;4.628;2022-11-04T14:45:46;100861.66;;;10.06;96.00
24752;BME280;27246;52.376;4.628;2022-11-04T14:50:51;100867.09;;;10.14;94.09
24752;BME280;27246;52.376;4.628;2022-11-04T15:01:23;100881.13;;;10.05;87.98
24752;BME280;27246;52.376;4.628;2022-11-04T15:06:33;100885.97;;;10.03;86.33
24752;BME280;27246;52.376;4.628;2022-11-04T15:17:29;100900.78;;;10.01;85.36
24752;BME280;27246;52.376;4.628;2022-11-04T15:22:34;100904.22;;;10.04;84.15
24752;BME280;27246;52.376;4.628;2022-11-04T15:27:39;100906.22;;;10.10;83.55
24752;BME280;27246;52.376;4.628;2022-11-04T15:33:01;100905.38;;;10.09;83.54
24752;BME280;27246;52.376;4.628;2022-11-04T15:38:03;100920.88;;;10.10;83.21
24752;BME280;27246;52.376;4.628;2022-11-04T15:43:05;100919.66;;;10.13;84.20
24752;BME280;27246;52.376;4.628;2022-11-04T15:48:27;100927.06;;;10.12;83.86
24752;BME280;27246;52.376;4.628;2022-11-04T15:53:32;100928.22;;;10.18;83.29
24752;BME280;27246;52.376;4.628;2022-11-04T15:58:35;100938.88;;;10.21;82.93
24752;BME280;27246;52.376;4.628;2022-11-04T16:03:37;100948.19;;;10.20;81.81
24752;BME280;27246;52.376;4.628;2022-11-04T16:08:39;100944.47;;;10.13;80.01
24752;BME280;27246;52.376;4.628;2022-11-04T16:13:41;100962.03;;;10.12;80.83
24752;BME280;27246;52.376;4.628;2022-11-04T16:18:49;100966.88;;;10.10;81.31
24752;BME280;27246;52.376;4.628;2022-11-04T16:24:01;100974.97;;;10.11;81.67
24752;BME280;27246;52.376;4.628;2022-11-04T16:29:07;100981.22;;;10.05;81.85
24752;BME280;27246;52.376;4.628;2022-11-04T16:34:11;100988.16;;;10.01;80.33
24752;BME280;27246;52.376;4.628;2022-11-04T16:39:14;100990.63;;;9.96;78.72
24752;BME280;27246;52.376;4.628;2022-11-04T16:44:20;100986.50;;;9.92;78.39
24752;BME280;27246;52.376;4.628;2022-11-04T16:49:23;101002.16;;;9.91;82.13
24752;BME280;27246;52.376;4.628;2022-11-04T16:54:24;101013.53;;;9.88;83.91
24752;BME280;27246;52.376;4.628;2022-11-04T16:59:27;101022.72;;;9.80;82.22
24752;BME280;27246;52.376;4.628;2022-11-04T17:04:29;101026.72;;;9.78;83.04
24752;BME280;27246;52.376;4.628;2022-11-04T17:09:32;101026.38;;;9.73;83.04
24752;BME280;27246;52.376;4.628;2022-11-04T17:14:34;101029.97;;;9.73;82.08
24752;BME280;27246;52.376;4.628;2022-11-04T17:19:36;101026.75;;;9.70;82.68
24752;BME280;27246;52.376;4.628;2022-11-04T17:24:38;101029.84;;;9.67;84.86
24752;BME280;27246;52.376;4.628;2022-11-04T17:29:40;101037.81;;;9.61;85.70
24752;BME280;27246;52.376;4.628;2022-11-04T17:34:42;101038.34;;;9.57;84.44
24752;BME280;27246;52.376;4.628;2022-11-04T17:39:44;101039.22;;;9.57;86.52
24752;BME280;27246;52.376;4.628;2022-11-04T17:44:45;101054.41;;;9.45;86.70
24752;BME280;27246;52.376;4.628;2022-11-04T17:49:47;101071.31;;;9.42;85.20
24752;BME280;27246;52.376;4.628;2022-11-04T17:54:49;101066.09;;;9.47;84.97
24752;BME280;27246;52.376;4.628;2022-11-04T17:59:51;101072.50;;;9.48;83.81
24752;BME280;27246;52.376;4.628;2022-11-04T18:04:53;101089.31;;;9.53;85.03
24752;BME280;27246;52.376;4.628;2022-11-04T18:09:55;101099.50;;;9.52;84.70
24752;BME280;27246;52.376;4.628;2022-11-04T18:14:57;101101.22;;;9.53;86.17
24752;BME280;27246;52.376;4.628;2022-11-04T18:19:59;101108.47;;;9.46;85.64
24752;BME280;27246;52.376;4.628;2022-11-04T18:25:00;101111.06;;;9.48;88.19
24752;BME280;27246;52.376;4.628;2022-11-04T18:30:03;101120.72;;;9.44;88.36
24752;BME280;27246;52.376;4.628;2022-11-04T18:35:05;101125.03;;;9.38;89.36
24752;BME280;27246;52.376;4.628;2022-11-04T18:40:07;101130.19;;;9.33;89.30
24752;BME280;27246;52.376;4.628;2022-11-04T18:45:09;101137.78;;;9.23;88.97
24752;BME280;27246;52.376;4.628;2022-11-04T18:50:11;101141.59;;;9.13;89.62
24752;BME280;27246;52.376;4.628;2022-11-04T18:55:13;101145.75;;;9.09;90.44
24752;BME280;27246;52.376;4.628;2022-11-04T19:00:15;101143.31;;;9.06;89.99
24752;BME280;27246;52.376;4.628;2022-11-04T19:05:17;101143.00;;;9.09;90.58
24752;BME280;27246;52.376;4.628;2022-11-04T19:10:19;101138.34;;;9.10;90.52
24752;BME280;27246;52.376;4.628;2022-11-04T19:15:21;101144.53;;;9.12;89.65
24752;BME280;27246;52.376;4.628;2022-11-04T19:20:25;101146.91;;;9.15;89.30
24752;BME280;27246;52.376;4.628;2022-11-04T19:25:27;101142.09;;;9.09;87.78
24752;BME280;27246;52.376;4.628;2022-11-04T19:30:28;101139.19;;;9.10;87.27
24752;BME280;27246;52.376;4.628;2022-11-04T19:35:34;101140.25;;;9.09;88.31
24752;BME280;27246;52.376;4.628;2022-11-04T19:40:36;101157.47;;;8.95;86.99
24752;BME280;27246;52.376;4.628;2022-11-04T19:45:40;101159.16;;;8.88;86.94
24752;BME280;27246;52.376;4.628;2022-11-04T19:50:47;101159.34;;;8.78;87.44
24752;BME280;27246;52.376;4.628;2022-11-04T19:55:51;101163.31;;;8.75;87.95
24752;BME280;27246;52.376;4.628;2022-11-04T20:00:53;101172.94;;;8.71;88.48
24752;BME280;27246;52.376;4.628;2022-11-04T20:05:55;101182.19;;;8.62;88.32
24752;BME280;27246;52.376;4.628;2022-11-04T20:11:03;101185.31;;;8.59;88.66
24752;BME280;27246;52.376;4.628;2022-11-04T20:16:30;101197.84;;;8.53;88.69
24752;BME280;27246;52.376;4.628;2022-11-04T20:21:35;101208.31;;;8.58;90.09
24752;BME280;27246;52.376;4.628;2022-11-04T20:26:38;101198.88;;;8.60;90.24
24752;BME280;27246;52.376;4.628;2022-11-04T20:31:40;101199.59;;;8.71;89.75
24752;BME280;27246;52.376;4.628;2022-11-04T20:36:42;101201.28;;;8.72;89.05
24752;BME280;27246;52.376;4.628;2022-11-04T20:41:44;101213.34;;;8.71;90.02
24752;BME280;27246;52.376;4.628;2022-11-04T20:46:48;101224.84;;;8.74;90.59
24752;BME280;27246;52.376;4.628;2022-11-04T20:51:50;101235.84;;;8.66;89.63
24752;BME280;27246;52.376;4.628;2022-11-04T20:56:55;101220.69;;;8.54;88.57
24752;BME280;27246;52.376;4.628;2022-11-04T21:01:57;101251.94;;;8.36;90.65
24752;BME280;27246;52.376;4.628;2022-11-04T21:07:00;101250.75;;;8.05;93.60
24752;BME280;27246;52.376;4.628;2022-11-04T21:12:03;101253.25;;;8.24;94.45
24752;BME280;27246;52.376;4.628;2022-11-04T21:17:05;101261.84;;;8.29;93.62
24752;BME280;27246;52.376;4.628;2022-11-04T21:22:07;101263.25;;;8.33;93.88
24752;BME280;27246;52.376;4.628;2022-11-04T21:27:08;101271.00;;;8.38;93.73
24752;BME280;27246;52.376;4.628;2022-11-04T21:32:10;101280.16;;;8.47;93.66
24752;BME280;27246;52.376;4.628;2022-11-04T21:37:13;101289.41;;;8.46;90.16
24752;BME280;27246;52.376;4.628;2022-11-04T21:42:15;101298.22;;;8.57;87.92
24752;BME280;27246;52.376;4.628;2022-11-04T21:47:17;101298.75;;;8.61;86.12
24752;BME280;27246;52.376;4.628;2022-11-04T21:52:19;101294.66;;;8.65;86.85
24752;BME280;27246;52.376;4.628;2022-11-04T21:57:20;101304.13;;;8.71;86.61
24752;BME280;27246;52.376;4.628;2022-11-04T22:02:23;101300.16;;;8.65;84.14
24752;BME280;27246;52.376;4.628;2022-11-04T22:07:25;101298.94;;;8.68;84.26
24752;BME280;27246;52.376;4.628;2022-11-04T22:12:45;101301.53;;;8.69;83.23
24752;BME280;27246;52.376;4.628;2022-11-04T22:17:51;101312.72;;;8.76;82.82
24752;BME280;27246;52.376;4.628;2022-11-04T22:22:53;101309.28;;;8.74;84.07
24752;BME280;27246;52.376;4.628;2022-11-04T22:27:55;101308.25;;;8.67;84.43
24752;BME280;27246;52.376;4.628;2022-11-04T22:32:57;101303.06;;;8.64;82.24
24752;BME280;27246;52.376;4.628;2022-11-04T22:37:58;101312.84;;;8.66;81.37
24752;BME280;27246;52.376;4.628;2022-11-04T22:43:00;101311.88;;;8.75;81.33
24752;BME280;27246;52.376;4.628;2022-11-04T22:48:02;101324.25;;;8.79;80.96
24752;BME280;27246;52.376;4.628;2022-11-04T22:53:03;101313.94;;;8.81;81.85
24752;BME280;27246;52.376;4.628;2022-11-04T22:58:05;101312.03;;;8.74;79.74
24752;BME280;27246;52.376;4.628;2022-11-04T23:03:14;101308.06;;;8.76;79.42
24752;BME280;27246;52.376;4.628;2022-11-04T23:08:17;101308.75;;;8.78;78.53
24752;BME280;27246;52.376;4.628;2022-11-04T23:13:19;101303.44;;;8.69;79.52
24752;BME280;27246;52.376;4.628;2022-11-04T23:18:39;101302.91;;;8.73;78.86
24752;BME280;27246;52.376;4.628;2022-11-04T23:23:43;101308.03;;;8.68;83.12
24752;BME280;27246;52.376;4.628;2022-11-04T23:29:04;101302.03;;;8.56;83.50
24752;BME280;27246;52.376;4.628;2022-11-04T23:34:25;101298.91;;;8.51;85.10
24752;BME280;27246;52.376;4.628;2022-11-04T23:39:47;101300.78;;;8.43;86.16
24752;BME280;27246;52.376;4.628;2022-11-04T23:44:54;101307.25;;;8.33;86.09
24752;BME280;27246;52.376;4.628;2022-11-04T23:50:15;101313.22;;;8.29;87.49
24752;BME280;27246;52.376;4.628;2022-11-04T23:55:35;101316.41;;;8.16;86.11
